Flight Track Log - Related Links

Times and Time Zones

All times are in EDT time to prevent confusion due to time zone crossing. See the EJA951 flight status page for this flight to view local times or setup timezone preferences in your user account.

Time Position Orientation Groundspeed Altitude Reporting Facility
EDT Latitude Longitude Course Direction KTS MPH feet Rate Location/Type
Thu 12:58:56 PM 26.4172 -80.0603 196° South 225 259 2,100  Level Miami Center
Thu 12:59:32 PM 26.4469 -80.0286 44° Northeast 240 276 3,800 1,918 Climbing Miami Center
Thu 01:00:33 PM 26.4758 -79.9575 66° East 271 312 5,200 1,655 Climbing Miami Center
Thu 01:01:28 PM 26.4217 -79.9514 174° South 267 307 7,000 610 Climbing Miami Center
Thu 01:03:30 PM 26.2783 -80.0078 199° South 271 312 7,000  Level Miami Center
Thu 01:04:00 PM 25.7954 -80.2901 196° South  Level Estimated
Thu 01:04:37 PM 26.1983 -80.0311 195° South 268 308 7,000  Level Miami Center
Thu 01:05:39 PM 26.1228 -80.0525 194° South 267 307 7,000  Level Miami Center
Thu 01:06:40 PM 26.0492 -80.0736 194° South 264 304 7,000  Level Miami Center
Thu 01:07:40 PM 25.9756 -80.0922 193° South 272 313 7,000  Level Miami Center
Thu 01:08:42 PM 25.9225 -80.1394 219° Southwest 257 296 7,000  Level Miami Center
Thu 01:09:42 PM 25.9144 -80.2178 263° West 256 295 7,000 -197 Level Miami Center
Thu 01:10:44 PM 25.9103 -80.2983 267° West 257 296 6,600 -1,163 Descending Miami Center
Thu 01:11:51 PM 25.9019 -80.3883 264° West 256 295 4,500 -1,770 Descending Miami Center
Thu 01:12:46 PM 25.8961 -80.4619 265° West 259 298 3,000 -776 Descending Miami Center
Thu 01:13:47 PM 25.8514 -80.4906 210° Southwest 209 241 3,000 -344 Level Miami Center
Thu 01:14:48 PM 25.7994 -80.4797 169° South 172 198 2,300 -738 Descending Miami Center
Thu 01:15:49 PM 25.7967 -80.4267 93° East 179 206 1,500 -492 Descending Miami Center
Thu 01:16:50 PM 25.7958 -80.3714 91° East 169 194 1,300 -541 Descending Miami Center
Thu 01:17:51 PM 25.8011 -80.3231 83° East 142 163 400 -885 Descending Miami Center
Thu 01:19:00 PM 25.7954 -80.2901 108° East  Level Estimated
Thu 01:26:00 PM 25.7954 -80.2901 283° West  Level Estimated

Login

Don't have an account? Register now (free) for customized features, flight alerts, and more!